Time;durP1;ratioP1;P1;durP2;ratioP2;P2;SDS_P1;SDS_P2;PMS_P1;PMS_P2;Temp;Humidity;BMP_temperature;BMP_pressure;BME280_temperature;BME280_humidity;BME280_pressure;Samples;Min_cycle;Max_cycle;Signal;HPM_P1;HPM_P2
2023/07/31 00:00:11;;;;;;;5.23;1.97;;;19.50;76.90;;;;;;5056106;28;20471;-67
2023/07/31 00:02:38;;;;;;;3.90;2.90;;;19.50;76.60;;;;;;5056118;28;20517;-67
2023/07/31 00:05:05;;;;;;;3.90;2.43;;;19.40;76.70;;;;;;5055749;28;20486;-67
2023/07/31 00:07:33;;;;;;;5.73;2.73;;;19.30;76.20;;;;;;5056295;28;20466;-68
2023/07/31 00:10:00;;;;;;;3.97;2.60;;;19.30;76.10;;;;;;5055291;28;20552;-68
2023/07/31 00:12:27;;;;;;;5.63;2.37;;;19.30;76.00;;;;;;5056099;28;20478;-68
2023/07/31 00:14:54;;;;;;;3.77;2.13;;;19.20;76.10;;;;;;5055984;28;20475;-68
2023/07/31 00:17:23;;;;;;;3.30;1.93;;;19.20;75.60;;;;;;5056098;28;20526;-68
2023/07/31 00:19:50;;;;;;;6.77;2.93;;;19.20;75.80;;;;;;5055111;28;20485;-68
2023/07/31 00:22:17;;;;;;;3.93;2.63;;;19.10;76.60;;;;;;5055511;28;20979;-67
2023/07/31 00:24:46;;;;;;;3.17;2.10;;;19.10;77.00;;;;;;5054791;28;20475;-68
2023/07/31 00:27:13;;;;;;;3.90;2.57;;;19.00;77.00;;;;;;5055399;28;20478;-68
2023/07/31 00:29:40;;;;;;;3.83;2.00;;;19.10;77.00;;;;;;5055422;28;20565;-68
2023/07/31 00:32:08;;;;;;;6.63;2.87;;;19.10;76.70;;;;;;5055362;28;20470;-67
2023/07/31 00:34:36;;;;;;;5.77;2.87;;;19.20;76.90;;;;;;5055248;28;20533;-67
2023/07/31 00:37:04;;;;;;;3.37;2.40;;;19.20;76.10;;;;;;5055369;28;20466;-67
2023/07/31 00:39:31;;;;;;;4.67;2.80;;;19.00;76.80;;;;;;5055245;28;20525;-68
2023/07/31 00:41:58;;;;;;;3.20;2.10;;;19.00;76.90;;;;;;5055379;28;20866;-68
2023/07/31 00:44:25;;;;;;;4.20;2.33;;;18.90;76.90;;;;;;5055369;28;20469;-68
2023/07/31 00:46:52;;;;;;;3.40;1.97;;;18.90;77.10;;;;;;5055322;28;20525;-68
2023/07/31 00:49:19;;;;;;;4.33;2.40;;;18.90;77.00;;;;;;5054009;28;20510;-68
2023/07/31 00:51:47;;;;;;;10.70;2.90;;;18.90;77.10;;;;;;5055314;28;20515;-67
2023/07/31 00:54:14;;;;;;;6.13;2.30;;;19.00;76.40;;;;;;5055198;28;20551;-67
2023/07/31 00:56:42;;;;;;;4.00;2.17;;;19.00;76.50;;;;;;5054394;28;20528;-68
2023/07/31 00:59:10;;;;;;;3.00;1.90;;;19.00;76.60;;;;;;5054509;28;20466;-68
2023/07/31 01:01:37;;;;;;;3.40;2.03;;;19.00;76.60;;;;;;5054776;28;20495;-67
2023/07/31 01:04:04;;;;;;;3.37;1.70;;;19.10;76.60;;;;;;5054616;28;20846;-67
2023/07/31 01:06:37;;;;;;;4.37;2.20;;;19.10;76.70;;;;;;5054972;28;20528;-68
2023/07/31 01:09:15;;;;;;;5.50;2.60;;;19.10;76.60;;;;;;5054548;28;20594;-68
2023/07/31 01:11:48;;;;;;;5.67;2.17;;;19.10;76.40;;;;;;5054842;28;20841;-67
2023/07/31 01:14:15;;;;;;;3.40;2.07;;;19.20;76.80;;;;;;5054902;28;20458;-67
2023/07/31 01:16:42;;;;;;;5.40;2.23;;;19.20;77.30;;;;;;5054567;28;20843;-67
2023/07/31 01:19:11;;;;;;;3.10;1.73;;;19.20;77.80;;;;;;5054312;28;20536;-70
2023/07/31 01:22:08;;;;;;;4.30;2.10;;;19.20;78.20;;;;;;5054602;28;20857;-67
2023/07/31 01:24:50;;;;;;;5.73;3.00;;;19.20;78.40;;;;;;5054761;28;20432;-68
2023/07/31 01:27:24;;;;;;;3.50;2.23;;;19.20;77.80;;;;;;5054314;28;20529;-70
2023/07/31 01:29:57;;;;;;;6.70;2.37;;;19.10;77.70;;;;;;5053851;28;20503;-68
2023/07/31 01:32:26;;;;;;;4.60;1.57;;;19.10;77.70;;;;;;5054747;28;20437;-68
2023/07/31 01:34:54;;;;;;;4.30;2.10;;;19.00;77.30;;;;;;5054415;28;20478;-67
2023/07/31 01:37:21;;;;;;;3.23;2.43;;;18.90;76.70;;;;;;5054414;28;20470;-67
2023/07/31 01:39:49;;;;;;;7.53;3.70;;;18.80;76.60;;;;;;5053622;28;20486;-68
2023/07/31 01:42:15;;;;;;;3.60;2.40;;;18.80;76.70;;;;;;5054316;28;20435;-67
2023/07/31 01:44:44;;;;;;;3.53;2.20;;;18.80;76.80;;;;;;5054296;28;20818;-67
2023/07/31 01:47:11;;;;;;;3.90;2.33;;;18.90;77.00;;;;;;5053809;28;20920;-67
2023/07/31 01:49:38;;;;;;;4.33;2.73;;;18.90;77.10;;;;;;5053381;28;21039;-67
2023/07/31 01:52:06;;;;;;;5.70;2.70;;;18.90;77.00;;;;;;5054292;28;20466;-67
2023/07/31 01:54:33;;;;;;;4.23;2.07;;;18.90;77.00;;;;;;5054093;28;20443;-68
2023/07/31 01:57:00;;;;;;;3.97;2.47;;;18.90;77.10;;;;;;5053728;28;20916;-68
2023/07/31 01:59:28;;;;;;;8.53;2.93;;;18.80;77.30;;;;;;5053759;28;20477;-67
2023/07/31 02:01:57;;;;;;;5.43;2.50;;;18.80;77.40;;;;;;5053982;28;20449;-67
2023/07/31 02:04:24;;;;;;;5.07;2.70;;;18.80;76.90;;;;;;5053834;28;20466;-68
2023/07/31 02:06:51;;;;;;;3.40;2.20;;;18.80;77.00;;;;;;5053584;28;20443;-69
2023/07/31 02:09:18;;;;;;;6.33;3.00;;;18.80;77.10;;;;;;5053173;28;20578;-67
2023/07/31 02:11:45;;;;;;;6.33;2.53;;;18.60;77.20;;;;;;5053139;28;20473;-67
2023/07/31 02:14:12;;;;;;;5.57;2.30;;;18.60;77.80;;;;;;5053499;28;20438;-68
2023/07/31 02:16:39;;;;;;;5.33;1.93;;;18.50;78.10;;;;;;5053482;28;20954;-68
2023/07/31 02:19:07;;;;;;;3.27;2.10;;;18.40;78.10;;;;;;5053314;28;20476;-69
2023/07/31 02:21:34;;;;;;;5.20;2.93;;;18.40;78.80;;;;;;5053634;28;20870;-68
2023/07/31 02:24:04;;;;;;;4.40;2.20;;;18.40;78.60;;;;;;5053769;28;20499;-67
2023/07/31 02:26:31;;;;;;;4.47;2.50;;;18.40;78.90;;;;;;5053645;28;20431;-68
2023/07/31 02:28:58;;;;;;;5.50;2.20;;;18.40;78.40;;;;;;5053416;28;20504;-68
2023/07/31 02:31:27;;;;;;;5.10;3.07;;;18.40;78.80;;;;;;5051363;28;20462;-68
2023/07/31 02:33:54;;;;;;;6.07;3.73;;;18.40;79.50;;;;;;5053570;28;20434;-68
2023/07/31 02:36:22;;;;;;;7.33;3.80;;;18.40;79.70;;;;;;5053521;28;20462;-67
2023/07/31 02:38:49;;;;;;;8.20;4.27;;;18.40;80.10;;;;;;5053425;28;20529;-67
2023/07/31 02:41:16;;;;;;;4.97;3.10;;;18.40;80.40;;;;;;5052321;28;20520;-68
2023/07/31 02:43:43;;;;;;;5.63;3.30;;;18.40;79.90;;;;;;5053146;28;20480;-68
2023/07/31 02:46:11;;;;;;;6.53;4.33;;;18.40;79.90;;;;;;5053360;28;20859;-67
2023/07/31 02:48:38;;;;;;;7.07;3.97;;;18.30;79.80;;;;;;5053394;28;20469;-67
2023/07/31 02:51:05;;;;;;;6.97;3.27;;;18.10;79.80;;;;;;5052575;28;20987;-67
2023/07/31 02:53:33;;;;;;;5.13;3.43;;;17.90;80.90;;;;;;5053393;28;20516;-68
2023/07/31 02:56:00;;;;;;;9.30;3.27;;;17.90;81.20;;;;;;5053298;28;20545;-67
2023/07/31 02:58:27;;;;;;;5.00;3.17;;;17.90;81.00;;;;;;5053030;28;20445;-67
2023/07/31 03:00:54;;;;;;;5.80;2.73;;;17.80;81.10;;;;;;5052815;28;20476;-67
2023/07/31 03:03:21;;;;;;;3.60;2.17;;;17.80;81.20;;;;;;5053269;28;20470;-67
2023/07/31 03:05:48;;;;;;;5.33;3.33;;;17.70;81.40;;;;;;5053184;28;20476;-68
2023/07/31 03:08:14;;;;;;;7.10;3.93;;;17.60;81.60;;;;;;5053061;28;20491;-67
2023/07/31 03:10:43;;;;;;;6.80;3.40;;;17.60;81.30;;;;;;5052843;28;20819;-67
2023/07/31 03:13:09;;;;;;;5.50;2.90;;;17.60;81.70;;;;;;5053201;28;20532;-67
2023/07/31 03:15:36;;;;;;;5.23;3.27;;;17.50;81.80;;;;;;5053160;28;20523;-67
2023/07/31 03:18:04;;;;;;;4.43;3.17;;;17.50;82.80;;;;;;5051786;28;20470;-68
2023/07/31 03:20:30;;;;;;;4.93;3.63;;;17.50;82.10;;;;;;5055957;28;20919;-67
2023/07/31 03:22:58;;;;;;;3.77;3.30;;;17.40;82.20;;;;;;5057057;28;20501;-67
2023/07/31 03:25:25;;;;;;;4.97;2.53;;;17.30;82.60;;;;;;5056916;28;20857;-68
2023/07/31 03:27:53;;;;;;;7.10;2.53;;;17.20;82.60;;;;;;5056413;28;20448;-69
2023/07/31 03:30:22;;;;;;;3.00;2.30;;;17.30;82.80;;;;;;5056736;28;20560;-69
2023/07/31 03:32:49;;;;;;;5.10;2.87;;;17.20;82.50;;;;;;5056455;28;20529;-69
2023/07/31 03:35:18;;;;;;;3.63;2.77;;;17.20;82.50;;;;;;5056354;28;20476;-70
2023/07/31 03:37:45;;;;;;;5.70;3.23;;;17.20;82.60;;;;;;5056435;28;20524;-70
2023/07/31 03:40:12;;;;;;;6.73;2.97;;;17.20;82.60;;;;;;5056568;28;20440;-69
2023/07/31 03:42:39;;;;;;;6.40;4.00;;;17.30;82.50;;;;;;5056612;28;20483;-69
2023/07/31 03:45:12;;;;;;;5.53;4.67;;;17.30;82.30;;;;;;5056532;28;20468;-69
2023/07/31 03:47:39;;;;;;;4.63;2.70;;;17.20;82.90;;;;;;5055832;28;20489;-70
2023/07/31 03:50:12;;;;;;;5.63;3.57;;;17.10;83.10;;;;;;5056086;28;20477;-70
2023/07/31 03:52:39;;;;;;;5.40;3.30;;;17.10;83.30;;;;;;5056511;28;20417;-68
2023/07/31 03:55:06;;;;;;;4.60;2.90;;;17.10;83.20;;;;;;5055435;28;20955;-70
2023/07/31 03:57:33;;;;;;;6.53;3.60;;;17.20;83.50;;;;;;5054689;28;20441;-67
2023/07/31 04:00:00;;;;;;;5.37;3.50;;;17.20;83.20;;;;;;5055546;28;20535;-68
2023/07/31 04:02:29;;;;;;;10.63;3.40;;;17.20;83.20;;;;;;5056291;28;20465;-69
2023/07/31 04:04:57;;;;;;;5.50;3.40;;;17.10;83.00;;;;;;5055807;28;20530;-67
2023/07/31 04:07:24;;;;;;;6.80;3.03;;;17.00;83.50;;;;;;5055807;28;20836;-68
2023/07/31 04:09:51;;;;;;;8.27;3.60;;;16.90;83.80;;;;;;5055866;28;20899;-67
2023/07/31 04:12:18;;;;;;;4.00;2.73;;;16.90;84.30;;;;;;5056125;28;20797;-68
2023/07/31 04:14:45;;;;;;;3.67;2.43;;;16.90;84.10;;;;;;5056026;28;20850;-68
2023/07/31 04:17:12;;;;;;;4.90;3.50;;;16.90;84.10;;;;;;5054461;28;20839;-68
2023/07/31 04:19:41;;;;;;;4.80;2.30;;;16.90;84.60;;;;;;5035843;28;20805;-67
2023/07/31 04:22:08;;;;;;;4.00;2.87;;;16.90;84.10;;;;;;5035625;28;20995;-67
2023/07/31 04:24:35;;;;;;;5.70;3.00;;;16.90;84.20;;;;;;5035919;28;20448;-68
2023/07/31 04:27:02;;;;;;;3.83;2.23;;;16.90;84.20;;;;;;5050217;28;20814;-68
2023/07/31 04:29:29;;;;;;;5.63;3.20;;;16.80;84.80;;;;;;5055402;28;20476;-67
2023/07/31 04:31:56;;;;;;;4.90;2.53;;;16.80;84.60;;;;;;5054892;28;20575;-67
2023/07/31 04:34:23;;;;;;;4.50;2.67;;;16.80;84.70;;;;;;5054790;28;20495;-70
2023/07/31 04:36:55;;;;;;;5.10;3.37;;;16.80;84.90;;;;;;5054835;28;20467;-68
2023/07/31 04:39:23;;;;;;;5.83;3.17;;;16.90;84.70;;;;;;5054978;28;20497;-68
2023/07/31 04:41:51;;;;;;;5.80;4.00;;;16.90;85.00;;;;;;5055234;28;20445;-67
2023/07/31 04:44:18;;;;;;;5.97;2.70;;;16.90;84.60;;;;;;5055144;28;20439;-67
2023/07/31 04:46:45;;;;;;;4.00;2.80;;;16.90;84.50;;;;;;5054890;28;20476;-67
2023/07/31 04:49:18;;;;;;;8.50;3.33;;;16.90;84.70;;;;;;5055148;28;20500;-67
2023/07/31 04:51:45;;;;;;;5.17;2.80;;;17.00;84.70;;;;;;5055629;28;20429;-67
2023/07/31 04:54:14;;;;;;;3.50;2.43;;;17.00;85.10;;;;;;5054961;28;20465;-67
2023/07/31 04:56:42;;;;;;;9.60;2.93;;;16.80;84.30;;;;;;5054696;28;21033;-67
2023/07/31 04:59:09;;;;;;;5.10;3.13;;;16.70;85.50;;;;;;5054807;28;20444;-67
2023/07/31 05:01:36;;;;;;;8.23;3.57;;;16.50;86.30;;;;;;5054767;28;20496;-67
2023/07/31 05:04:03;;;;;;;4.10;2.27;;;16.30;87.40;;;;;;5054247;28;20435;-67
2023/07/31 05:06:30;;;;;;;4.67;2.90;;;16.50;87.70;;;;;;5055003;28;20474;-68
2023/07/31 05:08:57;;;;;;;4.73;3.20;;;16.60;87.30;;;;;;5054372;28;20978;-68
2023/07/31 05:11:26;;;;;;;4.70;2.90;;;16.60;86.20;;;;;;5054919;28;20514;-67
2023/07/31 05:13:53;;;;;;;5.47;3.00;;;16.50;86.90;;;;;;5053957;28;20520;-68
2023/07/31 05:16:20;;;;;;;5.93;3.23;;;16.40;87.40;;;;;;5054486;28;20472;-67
2023/07/31 05:18:47;;;;;;;5.63;3.17;;;16.50;86.90;;;;;;5054333;28;20516;-67
2023/07/31 05:21:14;;;;;;;5.50;3.27;;;16.40;87.30;;;;;;5054688;28;20834;-67
2023/07/31 05:23:47;;;;;;;7.33;2.70;;;16.40;87.60;;;;;;5054019;28;20483;-68
2023/07/31 05:26:14;;;;;;;4.97;2.87;;;16.50;87.60;;;;;;5054562;28;20424;-67
2023/07/31 05:28:42;;;;;;;7.27;3.63;;;16.40;88.30;;;;;;5054453;28;20528;-69
2023/07/31 05:31:09;;;;;;;3.37;2.40;;;16.40;89.30;;;;;;5054193;28;20909;-69
2023/07/31 05:33:36;;;;;;;4.07;2.50;;;16.60;88.60;;;;;;5054154;28;20527;-67
2023/07/31 05:36:03;;;;;;;4.23;2.90;;;16.70;88.80;;;;;;5053799;28;20839;-68
2023/07/31 05:38:35;;;;;;;7.23;3.10;;;16.90;88.30;;;;;;5054432;28;20428;-67
2023/07/31 05:41:02;;;;;;;3.80;2.80;;;16.90;87.20;;;;;;5054336;28;20837;-67
2023/07/31 05:43:29;;;;;;;8.10;2.57;;;16.80;87.40;;;;;;5053429;28;20524;-68
2023/07/31 05:45:58;;;;;;;5.47;2.70;;;16.80;88.00;;;;;;5053529;28;20472;-68
2023/07/31 05:48:25;;;;;;;4.07;2.80;;;16.80;88.90;;;;;;5034171;28;20465;-71
2023/07/31 05:50:52;;;;;;;3.73;2.87;;;16.70;89.10;;;;;;5034113;28;20902;-67
2023/07/31 05:53:19;;;;;;;4.90;2.80;;;16.70;89.60;;;;;;5034163;28;20852;-68
2023/07/31 05:55:46;;;;;;;4.97;2.83;;;16.80;89.80;;;;;;5044732;28;20479;-72
2023/07/31 05:58:13;;;;;;;5.33;3.00;;;17.00;89.70;;;;;;5052332;28;20493;-68
2023/07/31 06:00:40;;;;;;;8.23;2.67;;;17.10;89.80;;;;;;5053204;28;20468;-67
2023/07/31 06:03:09;;;;;;;4.60;3.00;;;17.30;89.80;;;;;;5053966;28;20434;-68
2023/07/31 06:05:36;;;;;;;5.47;3.30;;;17.40;89.70;;;;;;5053699;28;20537;-68
2023/07/31 06:08:03;;;;;;;4.07;2.50;;;17.40;89.20;;;;;;5052904;28;20468;-68
2023/07/31 06:10:30;;;;;;;3.47;2.30;;;17.40;88.90;;;;;;5051890;28;20523;-70
2023/07/31 06:12:57;;;;;;;5.80;2.63;;;17.40;88.70;;;;;;5053732;28;20842;-70
2023/07/31 06:15:24;;;;;;;5.20;2.60;;;17.50;89.20;;;;;;5052834;28;20436;-69
2023/07/31 06:17:51;;;;;;;7.23;2.80;;;17.70;88.30;;;;;;5053560;28;20571;-69
2023/07/31 06:20:20;;;;;;;7.37;2.83;;;17.80;86.60;;;;;;5053426;28;20999;-70
2023/07/31 06:22:46;;;;;;;4.70;2.90;;;17.80;86.70;;;;;;5033570;28;20444;-70
2023/07/31 06:25:13;;;;;;;4.97;2.40;;;17.80;85.40;;;;;;5030845;28;20525;-69
2023/07/31 06:27:40;;;;;;;4.23;1.50;;;17.90;85.70;;;;;;5032587;28;20461;-71
2023/07/31 06:30:08;;;;;;;4.60;2.20;;;17.90;84.30;;;;;;5042178;28;20560;-70
2023/07/31 06:32:36;;;;;;;3.87;2.50;;;18.00;85.00;;;;;;5052165;28;20882;-70
2023/07/31 06:35:03;;;;;;;3.20;2.10;;;18.20;85.10;;;;;;5052408;28;20452;-70
2023/07/31 06:37:31;;;;;;;4.70;2.30;;;18.30;83.00;;;;;;5049818;28;20488;-72
2023/07/31 06:39:58;;;;;;;8.20;2.70;;;18.40;82.90;;;;;;5051299;28;20492;-70
2023/07/31 06:42:25;;;;;;;3.83;2.20;;;18.50;82.60;;;;;;5052183;28;20773;-70
2023/07/31 06:44:52;;;;;;;5.60;1.90;;;18.60;82.70;;;;;;5052167;28;20514;-69
2023/07/31 06:47:19;;;;;;;4.70;2.37;;;18.70;82.30;;;;;;5050804;28;20838;-71
2023/07/31 06:49:46;;;;;;;3.70;2.00;;;18.90;82.10;;;;;;5052263;28;20463;-70
2023/07/31 06:52:13;;;;;;;5.83;2.17;;;19.00;82.00;;;;;;5052320;28;20474;-70
2023/07/31 06:54:41;;;;;;;5.93;2.27;;;19.10;81.30;;;;;;5054354;28;20434;-70
2023/07/31 06:57:08;;;;;;;4.00;1.93;;;19.10;80.60;;;;;;5056522;28;20496;-69
2023/07/31 06:59:35;;;;;;;5.13;2.10;;;19.20;81.10;;;;;;5057092;28;20924;-70
2023/07/31 07:02:02;;;;;;;3.57;1.80;;;19.40;80.90;;;;;;5057320;28;20516;-70
2023/07/31 07:04:29;;;;;;;6.23;2.17;;;19.50;80.70;;;;;;5056963;28;20517;-71
2023/07/31 07:06:56;;;;;;;4.13;2.70;;;19.60;81.10;;;;;;5056378;28;20494;-70
2023/07/31 07:09:23;;;;;;;6.10;1.80;;;19.80;81.30;;;;;;5056652;28;20524;-68
2023/07/31 07:11:51;;;;;;;5.97;2.10;;;20.00;80.70;;;;;;5056977;28;20560;-68
2023/07/31 07:14:18;;;;;;;4.57;2.10;;;20.10;78.30;;;;;;5056788;28;20988;-68
2023/07/31 07:16:45;;;;;;;3.33;2.40;;;20.20;78.20;;;;;;5056666;28;21023;-68
2023/07/31 07:19:12;;;;;;;2.57;1.53;;;20.30;78.10;;;;;;5056883;28;20877;-68
2023/07/31 07:21:38;;;;;;;5.77;2.60;;;20.50;78.50;;;;;;5056734;28;20518;-68
2023/07/31 07:24:05;;;;;;;6.40;2.47;;;20.60;77.60;;;;;;5056672;28;20530;-68
2023/07/31 07:26:32;;;;;;;4.73;2.47;;;20.60;76.00;;;;;;5056341;28;20518;-68
2023/07/31 07:29:02;;;;;;;3.60;1.83;;;20.80;75.90;;;;;;5056643;28;20493;-68
2023/07/31 07:31:29;;;;;;;3.90;1.90;;;20.90;74.10;;;;;;5056729;28;20478;-68
2023/07/31 07:33:57;;;;;;;5.00;2.53;;;21.00;70.40;;;;;;5056661;28;20445;-68
2023/07/31 07:36:24;;;;;;;5.33;3.33;;;21.00;71.10;;;;;;5056572;28;20835;-68
2023/07/31 07:38:50;;;;;;;5.63;2.03;;;21.10;71.80;;;;;;5056707;28;20505;-68
2023/07/31 07:41:17;;;;;;;4.87;2.10;;;21.30;72.50;;;;;;5056280;28;20862;-68
2023/07/31 07:43:44;;;;;;;8.43;2.10;;;21.40;71.90;;;;;;5056556;28;20435;-68
2023/07/31 07:46:13;;;;;;;6.83;2.47;;;21.60;72.60;;;;;;5056489;28;20537;-68
2023/07/31 07:48:39;;;;;;;3.50;1.50;;;21.70;72.60;;;;;;5056121;28;20527;-68
2023/07/31 07:51:06;;;;;;;3.90;1.43;;;21.80;68.50;;;;;;5056282;28;20560;-68
2023/07/31 07:53:33;;;;;;;9.73;2.20;;;21.90;68.80;;;;;;5056355;28;20531;-68
2023/07/31 07:56:00;;;;;;;5.43;2.00;;;22.00;68.80;;;;;;5056013;28;20505;-68
2023/07/31 07:58:27;;;;;;;5.23;1.80;;;22.10;68.10;;;;;;5056328;28;20865;-68
2023/07/31 08:00:54;;;;;;;7.60;2.10;;;22.10;66.20;;;;;;5056100;28;20569;-68
2023/07/31 08:03:22;;;;;;;4.67;1.90;;;22.20;65.80;;;;;;5055975;28;20469;-68
2023/07/31 08:05:49;;;;;;;5.67;1.80;;;22.20;64.00;;;;;;5055941;28;20522;-68
2023/07/31 08:08:17;;;;;;;4.07;1.83;;;22.20;65.40;;;;;;5056119;28;20848;-68
2023/07/31 08:10:44;;;;;;;5.50;2.00;;;22.30;64.70;;;;;;5056102;28;20484;-68
2023/07/31 08:13:12;;;;;;;4.20;1.63;;;22.40;64.20;;;;;;5055774;28;20531;-69
2023/07/31 08:15:42;;;;;;;5.23;2.43;;;22.50;65.20;;;;;;5055672;28;20441;-68
2023/07/31 08:18:09;;;;;;;4.10;1.90;;;22.60;63.60;;;;;;5055814;28;20429;-68
2023/07/31 08:20:38;;;;;;;4.80;1.87;;;22.70;63.60;;;;;;5055474;28;20527;-67
2023/07/31 08:23:05;;;;;;;3.40;1.40;;;22.80;63.80;;;;;;5055550;28;20441;-68
2023/07/31 08:25:35;;;;;;;6.53;1.60;;;22.90;62.60;;;;;;5055720;28;20526;-68
2023/07/31 08:28:02;;;;;;;2.90;1.43;;;23.00;62.60;;;;;;5055856;28;20425;-68
2023/07/31 08:30:29;;;;;;;4.87;1.90;;;23.10;64.00;;;;;;5055374;28;20568;-68
2023/07/31 08:32:56;;;;;;;4.47;1.90;;;23.20;62.50;;;;;;5055717;28;20859;-68
2023/07/31 08:35:23;;;;;;;4.40;2.27;;;23.20;61.00;;;;;;5055312;28;20524;-68
2023/07/31 08:37:51;;;;;;;4.93;2.10;;;23.20;60.50;;;;;;5055679;28;20521;-68
2023/07/31 08:40:18;;;;;;;4.33;1.97;;;23.30;60.20;;;;;;5055579;28;20882;-68
2023/07/31 08:42:46;;;;;;;7.50;1.90;;;23.40;60.80;;;;;;5055596;28;20440;-68
2023/07/31 08:45:16;;;;;;;3.93;2.47;;;23.60;61.70;;;;;;5055476;28;20469;-68
2023/07/31 08:47:45;;;;;;;5.40;2.10;;;23.70;60.50;;;;;;5055159;28;20513;-68
2023/07/31 08:50:14;;;;;;;4.57;1.93;;;23.80;60.70;;;;;;5055284;28;20524;-68
2023/07/31 08:52:41;;;;;;;3.50;1.73;;;24.00;60.20;;;;;;5055043;28;20433;-68
2023/07/31 08:55:10;;;;;;;7.33;1.70;;;24.00;59.60;;;;;;5055296;28;20464;-68
2023/07/31 08:57:39;;;;;;;5.50;1.90;;;24.20;61.10;;;;;;5055028;28;20920;-68
2023/07/31 09:00:08;;;;;;;3.30;2.00;;;24.30;59.70;;;;;;5054900;28;20990;-68
2023/07/31 09:02:42;;;;;;;3.70;1.50;;;24.30;58.00;;;;;;5054835;28;20928;-68
2023/07/31 09:05:09;;;;;;;4.93;2.27;;;24.40;57.90;;;;;;5055085;28;20799;-68
2023/07/31 09:07:36;;;;;;;3.60;1.73;;;24.40;57.50;;;;;;5054772;28;20476;-68
2023/07/31 09:10:05;;;;;;;2.87;1.30;;;24.50;58.80;;;;;;5054751;28;20545;-68
2023/07/31 09:12:34;;;;;;;3.20;1.70;;;24.70;57.80;;;;;;5055000;28;20516;-68
2023/07/31 09:15:02;;;;;;;3.87;1.60;;;24.80;56.80;;;;;;5054967;28;20892;-68
2023/07/31 09:17:32;;;;;;;3.80;2.10;;;24.80;56.90;;;;;;5053985;28;20438;-68
2023/07/31 09:19:59;;;;;;;4.23;1.90;;;24.80;55.80;;;;;;5054791;28;20465;-68
2023/07/31 09:22:36;;;;;;;4.10;1.70;;;24.90;57.00;;;;;;5054867;28;20476;-68
2023/07/31 09:25:16;;;;;;;4.33;1.67;;;25.20;58.50;;;;;;5054498;28;20528;-68
2023/07/31 09:27:55;;;;;;;5.43;2.00;;;25.40;58.70;;;;;;5054795;28;20426;-68
2023/07/31 09:30:23;;;;;;;7.73;2.53;;;25.50;56.00;;;;;;5054949;28;20437;-69
2023/07/31 09:32:51;;;;;;;4.30;1.73;;;25.70;56.40;;;;;;5054651;28;20517;-68
2023/07/31 09:35:22;;;;;;;4.13;1.70;;;25.80;56.00;;;;;;5054229;28;20465;-69
2023/07/31 09:37:51;;;;;;;3.40;1.50;;;25.90;56.10;;;;;;5053929;28;20439;-68
2023/07/31 09:40:28;;;;;;;3.60;1.97;;;26.10;56.00;;;;;;5052727;28;20445;-68
2023/07/31 09:42:59;;;;;;;10.70;2.70;;;26.10;53.60;;;;;;5054424;28;20494;-69
2023/07/31 09:45:26;;;;;;;4.90;2.10;;;26.20;53.00;;;;;;5054106;28;20424;-68
2023/07/31 09:47:53;;;;;;;4.00;1.93;;;26.40;53.80;;;;;;5053884;28;20791;-69
2023/07/31 09:50:22;;;;;;;4.73;2.20;;;26.50;54.60;;;;;;5054024;28;20468;-68
2023/07/31 09:52:49;;;;;;;2.90;1.67;;;26.70;53.70;;;;;;5054254;28;20555;-68
2023/07/31 09:55:16;;;;;;;3.27;2.10;;;26.80;53.90;;;;;;5054274;28;20468;-68
2023/07/31 09:57:45;;;;;;;4.03;2.07;;;27.00;54.30;;;;;;5053872;28;20516;-68
2023/07/31 10:00:16;;;;;;;3.27;1.43;;;27.10;52.90;;;;;;5054308;28;20477;-68
2023/07/31 10:02:47;;;;;;;4.63;2.07;;;27.10;52.00;;;;;;5054240;28;20845;-68
2023/07/31 10:05:15;;;;;;;3.30;1.40;;;27.10;50.10;;;;;;5053654;28;20452;-68
2023/07/31 10:07:46;;;;;;;4.33;1.90;;;27.00;52.40;;;;;;5053985;28;20441;-69
2023/07/31 10:10:14;;;;;;;4.90;1.70;;;26.90;51.80;;;;;;5052166;28;20519;-68
2023/07/31 10:12:42;;;;;;;5.73;2.00;;;27.00;53.10;;;;;;5053541;28;20509;-68
2023/07/31 10:15:10;;;;;;;6.10;2.30;;;27.00;50.70;;;;;;5053564;28;20517;-68
2023/07/31 10:17:39;;;;;;;4.93;1.70;;;26.80;47.60;;;;;;5053901;28;20461;-68
2023/07/31 10:20:08;;;;;;;6.37;2.30;;;26.60;48.50;;;;;;5053380;28;20528;-69
2023/07/31 10:22:35;;;;;;;3.63;1.80;;;26.60;50.80;;;;;;5053748;28;20521;-68
2023/07/31 10:25:03;;;;;;;2.87;1.70;;;26.70;51.50;;;;;;5053778;28;20520;-68
2023/07/31 10:27:30;;;;;;;4.73;1.60;;;26.90;52.20;;;;;;5053334;28;20466;-68
2023/07/31 10:29:59;;;;;;;5.40;2.27;;;27.10;51.80;;;;;;5052724;28;20465;-68
2023/07/31 10:32:27;;;;;;;5.70;2.00;;;27.30;51.00;;;;;;5053625;28;20469;-68
2023/07/31 10:34:56;;;;;;;5.83;2.00;;;27.40;48.20;;;;;;5053563;28;20524;-68
2023/07/31 10:37:28;;;;;;;4.00;1.77;;;27.40;47.20;;;;;;5053300;28;20977;-68
2023/07/31 10:40:00;;;;;;;4.47;2.20;;;27.40;48.50;;;;;;5053317;28;20425;-68
2023/07/31 10:42:32;;;;;;;4.50;1.97;;;27.40;48.10;;;;;;5053239;28;20441;-69
2023/07/31 10:45:00;;;;;;;6.70;2.20;;;27.40;49.60;;;;;;5053594;28;20487;-68
2023/07/31 10:47:27;;;;;;;4.00;2.27;;;27.60;49.50;;;;;;5053560;28;20473;-68
2023/07/31 10:50:12;;;;;;;4.13;1.90;;;27.70;49.40;;;;;;5053019;28;20441;-69
2023/07/31 10:52:39;;;;;;;3.00;1.77;;;27.80;48.50;;;;;;5053078;28;20553;-68
2023/07/31 10:55:17;;;;;;;2.80;1.67;;;27.80;46.00;;;;;;5053104;28;20524;-68
2023/07/31 10:57:46;;;;;;;3.47;1.60;;;27.80;45.80;;;;;;5053089;28;20508;-68
2023/07/31 11:00:21;;;;;;;3.63;1.80;;;27.80;46.40;;;;;;5052761;28;20462;-68
2023/07/31 11:03:11;;;;;;;3.23;1.77;;;27.90;45.00;;;;;;5052309;28;20951;-68
2023/07/31 11:05:54;;;;;;;3.00;1.60;;;27.90;45.70;;;;;;5052424;28;20433;-68
2023/07/31 11:08:23;;;;;;;3.00;1.60;;;27.70;44.30;;;;;;5041841;28;20457;-69
2023/07/31 11:10:52;;;;;;;4.50;1.97;;;27.70;44.20;;;;;;5031874;28;20466;-68
2023/07/31 11:13:19;;;;;;;4.30;2.00;;;27.70;45.40;;;;;;5033026;28;20434;-69
2023/07/31 11:15:46;;;;;;;4.90;2.27;;;27.50;43.70;;;;;;5050317;28;20469;-68
2023/07/31 11:18:13;;;;;;;3.17;1.73;;;27.40;43.40;;;;;;5051642;28;20469;-68
2023/07/31 11:20:40;;;;;;;4.00;2.03;;;27.40;45.50;;;;;;5050425;28;20477;-69
2023/07/31 11:23:11;;;;;;;2.83;1.40;;;27.40;46.80;;;;;;5052006;28;20513;-69
2023/07/31 11:25:40;;;;;;;2.40;1.30;;;27.30;44.90;;;;;;5048911;28;20429;-69
2023/07/31 11:28:08;;;;;;;5.87;2.13;;;27.40;44.90;;;;;;5052463;28;20515;-68
2023/07/31 11:30:36;;;;;;;3.80;1.70;;;27.50;46.70;;;;;;5050567;28;20520;-68
2023/07/31 11:33:04;;;;;;;4.23;2.07;;;27.60;47.20;;;;;;5052143;28;20841;-68
2023/07/31 11:35:32;;;;;;;5.77;2.17;;;27.70;46.00;;;;;;5052539;28;20519;-68
2023/07/31 11:38:00;;;;;;;6.77;1.67;;;27.80;46.00;;;;;;5052242;28;20525;-68
2023/07/31 11:40:29;;;;;;;4.53;1.60;;;27.90;46.30;;;;;;5053454;28;20936;-68
2023/07/31 11:42:58;;;;;;;5.43;2.10;;;28.00;43.70;;;;;;5054168;28;20834;-68
2023/07/31 11:45:28;;;;;;;3.50;1.90;;;28.00;42.70;;;;;;5056129;28;20477;-68
2023/07/31 11:47:57;;;;;;;4.03;1.53;;;27.90;42.30;;;;;;5054975;28;20923;-68
2023/07/31 11:50:26;;;;;;;6.10;2.30;;;27.90;41.70;;;;;;5040561;28;20758;-68
2023/07/31 11:52:58;;;;;;;3.60;1.70;;;27.90;43.40;;;;;;5054066;28;20485;-68
2023/07/31 11:55:26;;;;;;;7.60;2.00;;;27.90;42.90;;;;;;5056277;28;20445;-68
2023/07/31 11:57:58;;;;;;;5.33;2.00;;;27.90;42.50;;;;;;5041496;28;20947;-70
2023/07/31 12:00:25;;;;;;;2.70;1.70;;;27.80;42.80;;;;;;5055681;28;20433;-68
2023/07/31 12:02:53;;;;;;;3.90;2.40;;;27.80;44.40;;;;;;5055526;28;20932;-68
2023/07/31 12:05:20;;;;;;;4.23;1.70;;;27.90;44.50;;;;;;5055080;28;20425;-68
2023/07/31 12:07:48;;;;;;;3.43;1.90;;;28.00;44.20;;;;;;5055831;28;20466;-68
2023/07/31 12:10:28;;;;;;;4.20;2.40;;;28.00;42.20;;;;;;5054926;28;20883;-68
2023/07/31 12:13:04;;;;;;;3.90;2.10;;;28.00;40.90;;;;;;5054921;28;21070;-68
2023/07/31 12:15:34;;;;;;;5.03;1.80;;;27.80;40.20;;;;;;5056051;28;20507;-68
2023/07/31 12:18:04;;;;;;;2.90;1.57;;;27.70;41.80;;;;;;5055342;28;20491;-68
2023/07/31 12:20:32;;;;;;;5.47;1.97;;;27.70;41.80;;;;;;5055574;28;20453;-68
2023/07/31 12:22:59;;;;;;;4.33;2.00;;;27.70;40.30;;;;;;5054944;28;20472;-69
2023/07/31 12:25:33;;;;;;;5.17;1.87;;;27.70;41.10;;;;;;5055955;28;20465;-68
2023/07/31 12:28:11;;;;;;;4.13;1.90;;;27.70;39.90;;;;;;5055913;28;20480;-68
2023/07/31 12:30:39;;;;;;;6.50;2.40;;;27.70;40.10;;;;;;5055981;28;20432;-68
2023/07/31 12:33:07;;;;;;;5.77;2.27;;;27.70;38.80;;;;;;5055972;28;20490;-69
2023/07/31 12:35:44;;;;;;;3.87;2.00;;;27.70;38.60;;;;;;5055720;28;20437;-68
2023/07/31 12:38:12;;;;;;;4.00;1.90;;;27.70;37.90;;;;;;5055278;28;20479;-68
2023/07/31 12:40:42;;;;;;;5.67;1.87;;;27.70;38.80;;;;;;5055672;28;20465;-68
2023/07/31 12:43:11;;;;;;;4.27;1.70;;;27.80;38.10;;;;;;5055301;28;20532;-68
2023/07/31 12:45:38;;;;;;;3.50;1.90;;;27.80;38.30;;;;;;5055323;28;20433;-68
2023/07/31 12:48:05;;;;;;;2.83;1.60;;;27.80;38.10;;;;;;5055568;28;20469;-68
2023/07/31 12:50:32;;;;;;;3.30;2.00;;;27.90;37.90;;;;;;5055441;28;20886;-68